Time,TemperatureF,DewpointF,PressureIn,WindDirection,WindDirectionDegrees,WindSpeedMPH,WindSpeedGustMPH,Humidity,HourlyPrecipIn,Conditions,Clouds,dailyrainin,SoftwareType,DateUTC
2013-05-19 00:03:00,27.6,17.4,29.79,NNE,23,0.0,0.0,65,0.00,,,0.00,WUHU216HW,2013-05-19 08:03:00,
2013-05-19 00:08:00,27.3,17.4,29.80,NNE,23,0.0,0.0,66,0.00,,,0.00,WUHU216HW,2013-05-19 08:08:00,
2013-05-19 00:13:00,27.3,17.7,29.80,NNE,23,0.0,0.0,67,0.00,,,0.00,WUHU216HW,2013-05-19 08:13:00,
2013-05-19 00:18:00,27.1,17.6,29.80,NNE,23,0.0,0.0,67,0.00,,,0.00,WUHU216HW,2013-05-19 08:18:00,
2013-05-19 00:23:00,27.1,17.6,29.80,NNE,23,0.0,0.0,67,0.00,,,0.00,WUHU216HW,2013-05-19 08:23:00,
2013-05-19 00:28:00,26.9,17.7,29.80,NNE,23,0.0,0.0,68,0.00,,,0.00,WUHU216HW,2013-05-19 08:28:00,
2013-05-19 00:33:00,26.7,17.6,29.81,NNE,23,0.0,0.0,68,0.00,,,0.00,WUHU216HW,2013-05-19 08:33:00,
2013-05-19 00:38:00,26.6,17.4,29.81,NNE,23,0.0,0.0,68,0.00,,,0.00,WUHU216HW,2013-05-19 08:38:00,
2013-05-19 00:43:00,26.4,17.2,29.81,NNE,23,0.0,0.0,68,0.00,,,0.00,WUHU216HW,2013-05-19 08:43:00,
2013-05-19 00:48:00,26.2,17.0,29.81,NNE,23,0.0,0.0,68,0.00,,,0.00,WUHU216HW,2013-05-19 08:48:00,
2013-05-19 00:53:00,26.2,17.4,29.82,NNE,23,0.0,0.0,69,0.00,,,0.00,WUHU216HW,2013-05-19 08:53:00,
2013-05-19 01:00:00,26.2,17.4,29.82,NNE,23,0.0,0.0,69,0.00,,,0.00,WUHU216HW,2013-05-19 09:00:00,
2013-05-19 01:05:00,25.8,17.0,29.82,NNE,23,0.0,0.0,69,0.00,,,0.00,WUHU216HW,2013-05-19 09:05:00,
2013-05-19 01:10:00,25.7,17.2,29.83,NNE,23,0.0,0.0,70,0.00,,,0.00,WUHU216HW,2013-05-19 09:10:00,
2013-05-19 01:15:00,25.5,17.0,29.83,NNE,23,0.0,0.0,70,0.00,,,0.00,WUHU216HW,2013-05-19 09:15:00,
2013-05-19 01:20:00,25.3,16.8,29.83,NNE,23,0.0,0.0,70,0.00,,,0.00,WUHU216HW,2013-05-19 09:20:00,
2013-05-19 01:25:00,25.3,16.8,29.83,NNE,23,0.0,0.0,70,0.00,,,0.00,WUHU216HW,2013-05-19 09:25:00,
2013-05-19 01:30:00,24.9,16.8,29.84,NNE,23,0.0,0.0,71,0.00,,,0.00,WUHU216HW,2013-05-19 09:30:00,
2013-05-19 01:35:00,24.9,17.1,29.84,NNE,23,0.0,0.0,72,0.00,,,0.00,WUHU216HW,2013-05-19 09:35:00,
2013-05-19 01:40:00,24.6,16.8,29.84,NNE,23,0.0,0.0,72,0.00,,,0.00,WUHU216HW,2013-05-19 09:40:00,
2013-05-19 01:45:00,24.6,16.8,29.85,NNE,23,0.0,0.0,72,0.00,,,0.00,WUHU216HW,2013-05-19 09:45:00,
2013-05-19 01:52:00,24.4,16.9,29.85,NNE,23,0.0,0.0,73,0.00,,,0.00,WUHU216HW,2013-05-19 09:52:00,
2013-05-19 01:57:00,24.4,16.9,29.86,NNE,23,0.0,0.0,73,0.00,,,0.00,WUHU216HW,2013-05-19 09:57:00,
2013-05-19 02:02:00,24.0,16.6,29.86,NNE,23,0.0,0.0,73,0.00,,,0.00,WUHU216HW,2013-05-19 10:02:00,
2013-05-19 02:07:00,23.9,16.7,29.86,NNE,23,0.0,0.0,74,0.00,,,0.00,WUHU216HW,2013-05-19 10:07:00,
2013-05-19 02:12:00,23.7,16.6,29.86,NNE,23,0.0,0.0,74,0.00,,,0.00,WUHU216HW,2013-05-19 10:12:00,
2013-05-19 02:17:00,23.7,16.6,29.87,NNE,23,0.0,0.0,74,0.00,,,0.00,WUHU216HW,2013-05-19 10:17:00,
2013-05-19 02:22:00,23.5,16.4,29.87,NNE,23,0.0,0.0,74,0.00,,,0.00,WUHU216HW,2013-05-19 10:22:00,
2013-05-19 02:27:00,23.3,16.2,29.87,NNE,23,0.0,0.0,74,0.00,,,0.00,WUHU216HW,2013-05-19 10:27:00,
2013-05-19 02:32:00,23.1,16.1,29.88,NNE,23,0.0,0.0,74,0.00,,,0.00,WUHU216HW,2013-05-19 10:32:00,
2013-05-19 02:37:00,23.1,16.1,29.88,NNE,23,0.0,0.0,74,0.00,,,0.00,WUHU216HW,2013-05-19 10:37:00,
2013-05-19 02:42:00,22.8,15.7,29.88,NNE,23,0.0,0.0,74,0.00,,,0.00,WUHU216HW,2013-05-19 10:42:00,
2013-05-19 02:47:00,22.8,15.7,29.88,NNE,23,0.0,0.0,74,0.00,,,0.00,WUHU216HW,2013-05-19 10:47:00,
2013-05-19 02:52:00,22.8,15.7,29.88,NNE,23,0.0,0.0,74,0.00,,,0.00,WUHU216HW,2013-05-19 10:52:00,
2013-05-19 02:57:00,22.6,15.8,29.89,NNE,23,0.0,0.0,75,0.00,,,0.00,WUHU216HW,2013-05-19 10:57:00,
2013-05-19 03:02:00,22.6,15.8,29.89,NNE,23,0.0,0.0,75,0.00,,,0.00,WUHU216HW,2013-05-19 11:02:00,
2013-05-19 03:07:00,22.2,15.5,29.89,NNE,23,0.0,0.0,75,0.00,,,0.00,WUHU216HW,2013-05-19 11:07:00,
2013-05-19 03:12:00,22.1,15.3,29.89,NNE,23,0.0,0.0,75,0.00,,,0.00,WUHU216HW,2013-05-19 11:12:00,
2013-05-19 03:17:00,21.9,15.1,29.90,NNE,23,0.0,0.0,75,0.00,,,0.00,WUHU216HW,2013-05-19 11:17:00,
2013-05-19 03:22:00,21.9,15.1,29.90,NNE,23,0.0,0.0,75,0.00,,,0.00,WUHU216HW,2013-05-19 11:22:00,
2013-05-19 03:27:00,21.7,15.3,29.90,NNE,23,0.0,0.0,76,0.00,,,0.00,WUHU216HW,2013-05-19 11:27:00,
2013-05-19 03:32:00,21.7,15.2,29.91,NNE,23,0.0,0.0,76,0.00,,,0.00,WUHU216HW,2013-05-19 11:32:00,
2013-05-19 03:37:00,21.5,15.1,29.91,NNE,23,0.0,0.0,76,0.00,,,0.00,WUHU216HW,2013-05-19 11:37:00,
2013-05-19 03:42:00,21.3,14.9,29.91,NNE,23,0.0,0.0,76,0.00,,,0.00,WUHU216HW,2013-05-19 11:42:00,
2013-05-19 03:47:00,21.3,14.9,29.91,NNE,23,0.0,0.0,76,0.00,,,0.00,WUHU216HW,2013-05-19 11:47:00,
2013-05-19 03:52:00,21.0,14.5,29.91,NNE,23,0.0,0.0,76,0.00,,,0.00,WUHU216HW,2013-05-19 11:52:00,
2013-05-19 03:57:00,21.0,14.5,29.91,NNE,23,0.0,0.0,76,0.00,,,0.00,WUHU216HW,2013-05-19 11:57:00,
2013-05-19 04:02:00,21.0,14.5,29.91,NNE,23,0.0,0.0,76,0.00,,,0.00,WUHU216HW,2013-05-19 12:02:00,
2013-05-19 04:07:00,20.8,14.3,29.91,NNE,23,0.0,0.0,76,0.00,,,0.00,WUHU216HW,2013-05-19 12:07:00,
2013-05-19 04:12:00,20.8,14.7,29.92,NNE,23,0.0,0.0,77,0.00,,,0.00,WUHU216HW,2013-05-19 12:12:00,
2013-05-19 04:17:00,21.0,15.1,29.92,NNE,23,0.0,0.0,78,0.00,,,0.00,WUHU216HW,2013-05-19 12:17:00,
2013-05-19 04:22:00,21.0,15.1,29.93,NNE,23,0.0,0.0,78,0.00,,,0.00,WUHU216HW,2013-05-19 12:22:00,
2013-05-19 04:28:00,20.8,15.0,29.93,NNE,23,0.0,0.0,78,0.00,,,0.00,WUHU216HW,2013-05-19 12:28:00,
2013-05-19 04:33:00,20.8,15.0,29.93,NNE,23,0.0,0.0,78,0.00,,,0.00,WUHU216HW,2013-05-19 12:33:00,
2013-05-19 04:37:00,20.8,15.0,29.93,NNE,23,0.0,0.0,78,0.00,,,0.00,WUHU216HW,2013-05-19 12:37:00,
2013-05-19 04:43:00,20.4,14.6,29.93,NNE,23,0.0,0.0,78,0.00,,,0.00,WUHU216HW,2013-05-19 12:43:00,
2013-05-19 04:48:00,20.4,14.6,29.94,NNE,23,0.0,0.0,78,0.00,,,0.00,WUHU216HW,2013-05-19 12:48:00,
2013-05-19 04:53:00,20.3,14.4,29.94,NNE,23,0.0,0.0,78,0.00,,,0.00,WUHU216HW,2013-05-19 12:53:00,
2013-05-19 04:58:00,20.1,14.2,29.94,NNE,23,0.0,0.0,78,0.00,,,0.00,WUHU216HW,2013-05-19 12:58:00,
2013-05-19 05:03:00,19.9,14.1,29.94,NNE,23,0.0,0.0,78,0.00,,,0.00,WUHU216HW,2013-05-19 13:03:00,
2013-05-19 05:08:00,20.1,14.5,29.94,NNE,23,0.0,0.0,79,0.00,,,0.00,WUHU216HW,2013-05-19 13:08:00,
2013-05-19 05:13:00,19.9,14.4,29.95,NNE,23,0.0,0.0,79,0.00,,,0.00,WUHU216HW,2013-05-19 13:13:00,
2013-05-19 05:18:00,19.9,14.4,29.95,NNE,23,0.0,0.0,79,0.00,,,0.00,WUHU216HW,2013-05-19 13:18:00,
2013-05-19 05:23:00,19.9,14.1,29.95,NNE,23,0.0,0.0,78,0.00,,,0.00,WUHU216HW,2013-05-19 13:23:00,
2013-05-19 05:28:00,19.7,13.9,29.96,NNE,23,0.0,0.0,78,0.00,,,0.00,WUHU216HW,2013-05-19 13:28:00,
2013-05-19 05:33:00,19.9,14.1,29.96,NNE,23,0.0,0.0,78,0.00,,,0.00,WUHU216HW,2013-05-19 13:33:00,
2013-05-19 05:38:00,19.9,14.4,29.96,NNE,23,0.0,0.0,79,0.00,,,0.00,WUHU216HW,2013-05-19 13:38:00,
2013-05-19 05:43:00,19.9,14.4,29.96,NNE,23,0.0,0.0,79,0.00,,,0.00,WUHU216HW,2013-05-19 13:43:00,
2013-05-19 05:48:00,19.9,14.4,29.96,NNE,23,0.0,0.0,79,0.00,,,0.00,WUHU216HW,2013-05-19 13:48:00,
2013-05-19 05:53:00,20.1,14.9,29.96,NNE,23,0.0,0.0,80,0.00,,,0.00,WUHU216HW,2013-05-19 13:53:00,
2013-05-19 05:58:00,20.1,14.9,29.96,NNE,23,0.0,0.0,80,0.00,,,0.00,WUHU216HW,2013-05-19 13:58:00,
2013-05-19 06:03:00,20.3,15.0,29.96,NNE,23,0.0,0.0,80,0.00,,,0.00,WUHU216HW,2013-05-19 14:03:00,
2013-05-19 06:08:00,20.3,15.0,29.97,NNE,23,0.0,0.0,80,0.00,,,0.00,WUHU216HW,2013-05-19 14:08:00,
2013-05-19 06:13:00,20.4,15.2,29.97,NNE,23,0.0,0.0,80,0.00,,,0.00,WUHU216HW,2013-05-19 14:13:00,
2013-05-19 06:18:00,20.8,15.6,29.97,NNE,23,0.0,0.0,80,0.00,,,0.00,WUHU216HW,2013-05-19 14:18:00,
2013-05-19 06:23:00,20.8,15.6,29.98,NNE,23,0.0,0.0,80,0.00,,,0.00,WUHU216HW,2013-05-19 14:23:00,
2013-05-19 06:28:00,21.3,16.1,29.98,NNE,23,0.0,0.0,80,0.00,,,0.00,WUHU216HW,2013-05-19 14:28:00,
2013-05-19 06:33:00,21.5,16.3,29.98,NNE,23,0.0,0.0,80,0.00,,,0.00,WUHU216HW,2013-05-19 14:33:00,
2013-05-19 06:38:00,23.0,18.0,29.98,NNE,23,0.0,0.0,81,0.00,,,0.00,WUHU216HW,2013-05-19 14:38:00,
2013-05-19 06:43:00,26.4,21.3,29.99,NNE,23,0.0,0.0,81,0.00,,,0.00,WUHU216HW,2013-05-19 14:43:00,
2013-05-19 06:48:00,29.3,24.1,29.99,NNE,23,0.0,0.0,81,0.00,,,0.00,WUHU216HW,2013-05-19 14:48:00,
2013-05-19 06:53:00,33.6,27.4,29.99,NNE,23,0.0,0.0,78,0.00,,,0.00,WUHU216HW,2013-05-19 14:53:00,
2013-05-19 06:58:00,38.1,29.5,29.99,NNE,23,0.0,0.0,71,0.00,,,0.00,WUHU216HW,2013-05-19 14:58:00,
2013-05-19 07:03:00,39.0,29.2,29.99,NNE,23,0.0,0.0,68,0.00,,,0.00,WUHU216HW,2013-05-19 15:03:00,
2013-05-19 07:08:00,38.8,28.7,29.99,NNE,23,0.0,0.0,67,0.00,,,0.00,WUHU216HW,2013-05-19 15:08:00,
2013-05-19 07:13:00,37.2,26.5,29.99,NNE,23,0.0,0.0,65,0.00,,,0.00,WUHU216HW,2013-05-19 15:13:00,
2013-05-19 07:18:00,35.7,25.5,30.00,NNE,23,0.0,0.0,66,0.00,,,0.00,WUHU216HW,2013-05-19 15:18:00,
2013-05-19 07:23:00,34.8,24.9,30.00,NNE,23,0.0,0.0,67,0.00,,,0.00,WUHU216HW,2013-05-19 15:23:00,
2013-05-19 07:28:00,34.3,25.1,30.01,NNE,23,0.0,0.0,69,0.00,,,0.00,WUHU216HW,2013-05-19 15:28:00,
2013-05-19 07:33:00,34.3,25.1,30.01,NNE,23,0.0,0.0,69,0.00,,,0.00,WUHU216HW,2013-05-19 15:33:00,
2013-05-19 07:38:00,34.3,25.5,30.01,NNE,23,0.0,0.0,70,0.00,,,0.00,WUHU216HW,2013-05-19 15:38:00,
2013-05-19 07:43:00,35.4,26.2,30.01,NNE,23,0.0,0.0,69,0.00,,,0.00,WUHU216HW,2013-05-19 15:43:00,
2013-05-19 07:48:00,35.9,26.0,30.01,NNE,23,0.0,0.0,67,0.00,,,0.00,WUHU216HW,2013-05-19 15:48:00,
2013-05-19 07:53:00,35.7,25.5,30.02,NNE,23,0.0,0.0,66,0.00,,,0.00,WUHU216HW,2013-05-19 15:53:00,
2013-05-19 07:58:00,34.8,24.6,30.02,NNE,23,0.0,0.0,66,0.00,,,0.00,WUHU216HW,2013-05-19 15:58:00,
2013-05-19 08:03:00,34.3,24.0,30.02,NNE,23,0.0,0.0,66,0.00,,,0.00,WUHU216HW,2013-05-19 16:03:00,
2013-05-19 08:08:00,34.1,24.6,30.02,NNE,23,0.0,0.0,68,0.00,,,0.00,WUHU216HW,2013-05-19 16:08:00,
2013-05-19 08:13:00,34.3,24.8,30.02,NNE,23,0.0,0.0,68,0.00,,,0.00,WUHU216HW,2013-05-19 16:13:00,
2013-05-19 08:18:00,34.3,24.8,30.02,NNE,23,0.0,0.0,68,0.00,,,0.00,WUHU216HW,2013-05-19 16:18:00,
2013-05-19 08:23:00,34.3,24.4,30.02,NNE,23,0.0,0.0,67,0.00,,,0.00,WUHU216HW,2013-05-19 16:23:00,
2013-05-19 08:28:00,34.5,24.2,30.03,NNE,23,0.0,0.0,66,0.00,,,0.00,WUHU216HW,2013-05-19 16:28:00,
2013-05-19 08:33:00,34.7,24.4,30.03,NNE,23,0.0,1.1,66,0.00,,,0.00,WUHU216HW,2013-05-19 16:33:00,
2013-05-19 08:38:00,35.2,24.6,30.03,NNE,23,0.0,1.1,65,0.00,,,0.00,WUHU216HW,2013-05-19 16:38:00,
2013-05-19 08:43:00,35.7,24.0,30.03,ENE,68,0.0,0.0,62,0.00,,,0.00,WUHU216HW,2013-05-19 16:43:00,
2013-05-19 08:48:00,35.9,23.8,30.04,NE,45,2.2,2.2,61,0.00,,,0.00,WUHU216HW,2013-05-19 16:48:00,
2013-05-19 08:53:00,36.1,23.6,30.04,NE,45,0.0,2.2,60,0.00,,,0.00,WUHU216HW,2013-05-19 16:53:00,
2013-05-19 08:58:00,36.5,23.9,30.04,NNE,23,3.3,3.3,60,0.00,,,0.00,WUHU216HW,2013-05-19 16:58:00,
2013-05-19 09:03:00,36.8,24.3,30.04,NE,45,0.6,3.3,60,0.00,,,0.00,WUHU216HW,2013-05-19 17:03:00,
2013-05-19 09:08:00,37.4,23.9,30.04,NNE,23,3.5,3.5,58,0.00,,,0.00,WUHU216HW,2013-05-19 17:08:00,
2013-05-19 09:13:00,37.7,23.3,30.04,North,0,3.1,3.5,56,0.00,,,0.00,WUHU216HW,2013-05-19 17:13:00,
2013-05-19 09:18:00,38.4,24.4,30.04,NNE,23,3.3,3.5,57,0.00,,,0.00,WUHU216HW,2013-05-19 17:18:00,
2013-05-19 09:23:00,39.7,24.7,30.04,NE,45,0.0,3.3,55,0.00,,,0.00,WUHU216HW,2013-05-19 17:23:00,
2013-05-19 09:28:00,41.1,25.6,30.04,ENE,68,0.0,5.5,54,0.00,,,0.00,WUHU216HW,2013-05-19 17:28:00,
2013-05-19 09:33:00,42.6,26.2,30.05,North,0,0.0,5.5,52,0.00,,,0.00,WUHU216HW,2013-05-19 17:33:00,
2013-05-19 09:38:00,42.4,25.5,30.05,NE,45,5.3,5.3,51,0.00,,,0.00,WUHU216HW,2013-05-19 17:38:00,
2013-05-19 09:43:00,41.7,23.9,30.04,NE,45,3.8,5.3,49,0.00,,,0.00,WUHU216HW,2013-05-19 17:43:00,
2013-05-19 09:48:00,41.1,23.9,30.05,NNE,23,1.7,5.3,50,0.00,,,0.00,WUHU216HW,2013-05-19 17:48:00,
2013-05-19 09:53:00,41.1,23.9,30.05,East,90,1.1,4.4,50,0.00,,,0.00,WUHU216HW,2013-05-19 17:53:00,
2013-05-19 09:58:00,42.6,25.7,30.05,NNE,23,0.0,3.8,51,0.00,,,0.00,WUHU216HW,2013-05-19 17:58:00,
2013-05-19 10:03:00,46.9,28.1,30.06,NNE,23,2.2,3.8,48,0.00,,,0.00,WUHU216HW,2013-05-19 18:03:00,
2013-05-19 10:08:00,54.1,30.8,30.06,NW,315,0.0,2.4,41,0.00,,,0.00,WUHU216HW,2013-05-19 18:08:00,
2013-05-19 10:13:00,57.7,32.8,30.06,NNE,23,7.6,7.6,39,0.00,,,0.00,WUHU216HW,2013-05-19 18:13:00,
2013-05-19 10:18:00,61.3,33.9,30.06,North,0,6.9,7.6,36,0.00,,,0.00,WUHU216HW,2013-05-19 18:18:00,
2013-05-19 10:23:00,62.7,34.5,30.06,NNW,338,0.6,6.9,35,0.00,,,0.00,WUHU216HW,2013-05-19 18:23:00,
2013-05-19 10:28:00,64.2,34.3,30.06,NNE,23,0.8,6.9,33,0.00,,,0.00,WUHU216HW,2013-05-19 18:28:00,
2013-05-19 10:33:00,64.2,33.6,30.06,West,270,5.8,6.2,32,0.00,,,0.00,WUHU216HW,2013-05-19 18:33:00,
2013-05-19 10:38:00,64.2,32.9,30.06,WNW,293,2.6,6.2,31,0.00,,,0.00,WUHU216HW,2013-05-19 18:38:00,
2013-05-19 10:43:00,64.5,33.2,30.06,North,0,1.1,5.8,31,0.00,,,0.00,WUHU216HW,2013-05-19 18:43:00,
2013-05-19 10:48:00,65.8,33.6,30.06,NNE,23,4.2,4.2,30,0.00,,,0.00,WUHU216HW,2013-05-19 18:48:00,
2013-05-19 10:53:00,65.3,32.1,30.06,North,0,0.0,4.2,29,0.00,,,0.00,WUHU216HW,2013-05-19 18:53:00,
2013-05-19 10:58:00,64.7,31.6,30.06,North,0,4.4,4.4,29,0.00,,,0.00,WUHU216HW,2013-05-19 18:58:00,
2013-05-19 11:03:00,65.6,31.4,30.07,WNW,293,0.0,9.6,28,0.00,,,0.00,WUHU216HW,2013-05-19 19:03:00,
2013-05-19 11:08:00,65.8,31.6,30.07,NW,315,0.6,9.6,28,0.00,,,0.00,WUHU216HW,2013-05-19 19:08:00,
2013-05-19 11:13:00,64.9,30.8,30.07,WNW,293,3.5,6.0,28,0.00,,,0.00,WUHU216HW,2013-05-19 19:13:00,
2013-05-19 11:18:00,63.3,29.4,30.07,North,0,0.6,6.4,28,0.00,,,0.00,WUHU216HW,2013-05-19 19:18:00,
2013-05-19 11:23:00,61.5,27.8,30.07,NW,315,6.9,6.9,28,0.00,,,0.00,WUHU216HW,2013-05-19 19:23:00,
2013-05-19 11:28:00,58.8,26.5,30.08,NW,315,6.0,9.1,29,0.00,,,0.00,WUHU216HW,2013-05-19 19:28:00,
2013-05-19 11:33:00,54.5,24.4,30.07,North,0,9.1,9.1,31,0.00,,,0.00,WUHU216HW,2013-05-19 19:33:00,
2013-05-19 11:38:00,52.3,23.2,30.08,NNE,23,7.3,9.1,32,0.00,,,0.00,WUHU216HW,2013-05-19 19:38:00,
2013-05-19 11:43:00,50.3,21.4,30.08,NNE,23,4.6,9.1,32,0.00,,,0.00,WUHU216HW,2013-05-19 19:43:00,
2013-05-19 11:48:00,48.9,20.9,30.08,WNW,293,4.0,7.3,33,0.00,,,0.00,WUHU216HW,2013-05-19 19:48:00,
2013-05-19 11:53:00,49.8,22.3,30.09,NNW,338,5.8,7.1,34,0.00,,,0.00,WUHU216HW,2013-05-19 19:53:00,
2013-05-19 11:58:00,53.0,24.5,30.09,WNW,293,4.9,6.0,33,0.00,,,0.00,WUHU216HW,2013-05-19 19:58:00,
2013-05-19 12:03:00,57.9,28.1,30.09,WSW,248,4.0,5.8,32,0.00,,,0.00,WUHU216HW,2013-05-19 20:03:00,
2013-05-19 12:08:00,60.9,30.0,30.09,NW,315,3.8,8.5,31,0.00,,,0.00,WUHU216HW,2013-05-19 20:08:00,
2013-05-19 12:13:00,62.4,29.6,30.09,NNE,23,3.3,8.5,29,0.00,,,0.00,WUHU216HW,2013-05-19 20:13:00,
2013-05-19 12:18:00,63.5,30.5,30.09,NNW,338,3.5,9.3,29,0.00,,,0.00,WUHU216HW,2013-05-19 20:18:00,
2013-05-19 12:23:00,64.0,30.0,30.10,NW,315,9.3,9.3,28,0.00,,,0.00,WUHU216HW,2013-05-19 20:23:00,
2013-05-19 12:28:00,63.6,28.7,30.10,West,270,3.1,10.2,27,0.00,,,0.00,WUHU216HW,2013-05-19 20:28:00,
2013-05-19 12:33:00,64.2,30.2,30.10,NW,315,6.4,10.2,28,0.00,,,0.00,WUHU216HW,2013-05-19 20:33:00,
2013-05-19 12:38:00,64.2,29.2,30.10,NE,45,12.0,12.0,27,0.00,,,0.00,WUHU216HW,2013-05-19 20:38:00,
2013-05-19 12:43:00,63.6,29.7,30.09,North,0,4.0,12.0,28,0.00,,,0.00,WUHU216HW,2013-05-19 20:43:00,
2013-05-19 12:48:00,64.4,29.3,30.10,NNW,338,1.5,9.1,27,0.00,,,0.00,WUHU216HW,2013-05-19 20:48:00,
2013-05-19 12:53:00,64.2,29.2,30.10,NE,45,0.0,9.1,27,0.00,,,0.00,WUHU216HW,2013-05-19 20:53:00,
2013-05-19 12:59:00,64.2,29.2,30.10,NW,315,0.0,6.4,27,0.00,,,0.00,WUHU216HW,2013-05-19 20:59:00,
2013-05-19 13:04:00,64.5,30.5,30.10,WNW,293,3.5,3.5,28,0.00,,,0.00,WUHU216HW,2013-05-19 21:04:00,
2013-05-19 13:09:00,64.9,30.8,30.10,NNE,23,0.0,3.5,28,0.00,,,0.00,WUHU216HW,2013-05-19 21:09:00,
2013-05-19 13:14:00,64.9,29.8,30.11,NNE,23,1.3,3.5,27,0.00,,,0.00,WUHU216HW,2013-05-19 21:14:00,
2013-05-19 13:19:00,64.0,27.1,30.11,ENE,68,0.0,8.9,25,0.00,,,0.00,WUHU216HW,2013-05-19 21:19:00,
2013-05-19 13:24:00,62.9,28.1,30.10,North,0,7.1,8.9,27,0.00,,,0.00,WUHU216HW,2013-05-19 21:24:00,
2013-05-19 13:29:00,62.9,29.1,30.11,NW,315,5.3,7.1,28,0.00,,,0.00,WUHU216HW,2013-05-19 21:29:00,
2013-05-19 13:34:00,62.7,28.9,30.11,WNW,293,1.5,5.3,28,0.00,,,0.00,WUHU216HW,2013-05-19 21:34:00,
2013-05-19 13:39:00,62.7,29.1,30.11,West,270,6.7,10.2,28,0.00,,,0.00,WUHU216HW,2013-05-19 21:39:00,
2013-05-19 13:44:00,62.4,28.6,30.11,WNW,293,4.0,10.2,28,0.00,,,0.00,WUHU216HW,2013-05-19 21:44:00,
2013-05-19 13:49:00,62.4,28.6,30.11,WNW,293,3.3,6.7,28,0.00,,,0.00,WUHU216HW,2013-05-19 21:49:00,
2013-05-19 13:54:00,62.9,29.1,30.11,NNW,338,1.3,4.0,28,0.00,,,0.00,WUHU216HW,2013-05-19 21:54:00,
2013-05-19 13:59:00,63.3,29.4,30.11,North,0,6.4,6.9,28,0.00,,,0.00,WUHU216HW,2013-05-19 21:59:00,
2013-05-19 14:04:00,64.0,30.0,30.11,North,0,0.0,6.9,28,0.00,,,0.00,WUHU216HW,2013-05-19 22:04:00,
2013-05-19 14:09:00,64.5,29.5,30.11,NNE,23,7.1,7.1,27,0.00,,,0.00,WUHU216HW,2013-05-19 22:09:00,
2013-05-19 14:14:00,63.8,28.9,30.12,NW,315,9.8,9.8,27,0.00,,,0.00,WUHU216HW,2013-05-19 22:14:00,
2013-05-19 14:19:00,61.8,28.1,30.11,North,0,5.3,9.8,28,0.00,,,0.00,WUHU216HW,2013-05-19 22:19:00,
2013-05-19 14:24:00,62.2,28.4,30.11,NNE,23,0.0,5.8,28,0.00,,,0.00,WUHU216HW,2013-05-19 22:24:00,
2013-05-19 14:29:00,62.4,27.6,30.12,NNW,338,6.0,6.0,27,0.00,,,0.00,WUHU216HW,2013-05-19 22:29:00,
2013-05-19 14:34:00,62.6,27.8,30.11,NNE,23,3.1,6.0,27,0.00,,,0.00,WUHU216HW,2013-05-19 22:34:00,
2013-05-19 14:39:00,62.6,27.8,30.12,NW,315,6.0,6.0,27,0.00,,,0.00,WUHU216HW,2013-05-19 22:39:00,
2013-05-19 14:44:00,62.7,27.9,30.12,West,270,0.8,6.0,27,0.00,,,0.00,WUHU216HW,2013-05-19 22:44:00,
2013-05-19 14:49:00,63.3,28.4,30.12,North,0,6.9,8.5,27,0.00,,,0.00,WUHU216HW,2013-05-19 22:49:00,
2013-05-19 14:54:00,63.3,28.4,30.12,NE,45,0.0,8.5,27,0.00,,,0.00,WUHU216HW,2013-05-19 22:54:00,
2013-05-19 14:59:00,63.6,28.7,30.12,NNW,338,8.5,8.5,27,0.00,,,0.00,WUHU216HW,2013-05-19 22:59:00,
2013-05-19 15:04:00,64.0,29.0,30.12,North,0,9.8,9.8,27,0.00,,,0.00,WUHU216HW,2013-05-19 23:04:00,
2013-05-19 15:09:00,62.9,28.1,30.12,NNE,23,4.2,11.6,27,0.00,,,0.00,WUHU216HW,2013-05-19 23:09:00,
2013-05-19 15:14:00,63.1,28.2,30.12,North,0,2.0,11.6,27,0.00,,,0.00,WUHU216HW,2013-05-19 23:14:00,
2013-05-19 15:19:00,62.7,27.9,30.12,NNW,338,0.0,5.8,27,0.00,,,0.00,WUHU216HW,2013-05-19 23:19:00,
2013-05-19 15:24:00,62.7,27.9,30.12,NE,45,1.3,5.8,27,0.00,,,0.00,WUHU216HW,2013-05-19 23:24:00,
2013-05-19 15:29:00,62.7,27.9,30.12,SE,135,3.3,3.3,27,0.00,,,0.00,WUHU216HW,2013-05-19 23:29:00,
2013-05-19 15:34:00,62.4,27.6,30.12,NW,315,2.9,3.3,27,0.00,,,0.00,WUHU216HW,2013-05-19 23:34:00,
2013-05-19 15:39:00,61.5,26.8,30.13,NNE,23,7.3,8.5,27,0.00,,,0.00,WUHU216HW,2013-05-19 23:39:00,
2013-05-19 15:44:00,60.6,25.1,30.13,NW,315,5.8,8.5,26,0.00,,,0.00,WUHU216HW,2013-05-19 23:44:00,
2013-05-19 15:49:00,60.4,25.9,30.13,North,0,0.8,7.3,27,0.00,,,0.00,WUHU216HW,2013-05-19 23:49:00,
2013-05-19 15:54:00,60.6,27.0,30.13,NE,45,4.2,5.8,28,0.00,,,0.00,WUHU216HW,2013-05-19 23:54:00,
2013-05-19 15:59:00,60.4,26.9,30.13,North,0,8.0,8.0,28,0.00,,,0.00,WUHU216HW,2013-05-19 23:59:00,
2013-05-19 16:04:00,59.5,26.1,30.13,NW,315,0.8,9.1,28,0.00,,,0.00,WUHU216HW,2013-05-20 00:04:00,
2013-05-19 16:09:00,58.1,24.9,30.14,North,0,11.8,11.8,28,0.00,,,0.00,WUHU216HW,2013-05-20 00:09:00,
2013-05-19 16:14:00,57.0,23.9,30.13,NW,315,0.0,11.8,28,0.00,,,0.00,WUHU216HW,2013-05-20 00:14:00,
2013-05-19 16:19:00,55.7,22.8,30.14,NW,315,0.0,11.8,28,0.00,,,0.00,WUHU216HW,2013-05-20 00:19:00,
2013-05-19 16:24:00,53.6,21.0,30.14,North,0,3.5,8.5,28,0.00,,,0.00,WUHU216HW,2013-05-20 00:24:00,
2013-05-19 16:29:00,52.3,20.9,30.14,North,0,6.7,8.5,29,0.00,,,0.00,WUHU216HW,2013-05-20 00:29:00,
2013-05-19 16:34:00,51.4,21.0,30.14,NNW,338,3.5,6.7,30,0.00,,,0.00,WUHU216HW,2013-05-20 00:34:00,
2013-05-19 16:39:00,50.7,21.0,30.14,NW,315,0.0,6.7,31,0.00,,,0.00,WUHU216HW,2013-05-20 00:39:00,
2013-05-19 16:44:00,50.1,20.6,30.14,West,270,0.0,4.9,31,0.00,,,0.00,WUHU216HW,2013-05-20 00:44:00,
2013-05-19 16:49:00,49.8,20.2,30.14,North,0,0.0,4.9,31,0.00,,,0.00,WUHU216HW,2013-05-20 00:49:00,
2013-05-19 16:54:00,49.6,20.8,30.14,NE,45,3.5,4.9,32,0.00,,,0.00,WUHU216HW,2013-05-20 00:54:00,
2013-05-19 16:59:00,49.1,20.3,30.14,WNW,293,5.3,7.8,32,0.00,,,0.00,WUHU216HW,2013-05-20 00:59:00,
2013-05-19 17:04:00,48.7,20.0,30.14,WNW,293,8.0,8.0,32,0.00,,,0.00,WUHU216HW,2013-05-20 01:04:00,
2013-05-19 17:09:00,48.3,19.7,30.14,NNW,338,0.4,8.0,32,0.00,,,0.00,WUHU216HW,2013-05-20 01:09:00,
2013-05-19 17:14:00,48.3,20.4,30.14,North,0,4.0,4.0,33,0.00,,,0.00,WUHU216HW,2013-05-20 01:14:00,
2013-05-19 17:19:00,48.3,20.4,30.14,North,0,3.5,8.0,33,0.00,,,0.00,WUHU216HW,2013-05-20 01:19:00,
2013-05-19 17:24:00,48.2,20.3,30.14,NNE,23,8.9,8.9,33,0.00,,,0.00,WUHU216HW,2013-05-20 01:24:00,
2013-05-19 17:29:00,48.3,20.4,30.14,NNW,338,1.5,8.9,33,0.00,,,0.00,WUHU216HW,2013-05-20 01:29:00,
2013-05-19 17:34:00,48.2,20.3,30.14,WNW,293,7.1,9.1,33,0.00,,,0.00,WUHU216HW,2013-05-20 01:34:00,
2013-05-19 17:39:00,48.0,20.1,30.15,North,0,7.1,9.1,33,0.00,,,0.00,WUHU216HW,2013-05-20 01:39:00,
2013-05-19 17:44:00,47.8,19.9,30.15,NNW,338,2.6,7.8,33,0.00,,,0.00,WUHU216HW,2013-05-20 01:44:00,
2013-05-19 17:49:00,47.8,19.9,30.15,NNW,338,5.1,7.1,33,0.00,,,0.00,WUHU216HW,2013-05-20 01:49:00,
2013-05-19 17:55:00,47.6,20.4,30.14,WNW,293,4.2,6.9,34,0.00,,,0.00,WUHU216HW,2013-05-20 01:55:00,
2013-05-19 18:00:00,47.6,19.8,30.15,West,270,0.6,6.9,33,0.00,,,0.00,WUHU216HW,2013-05-20 02:00:00,
2013-05-19 18:05:00,47.4,19.6,30.15,WNW,293,6.2,6.2,33,0.00,,,0.00,WUHU216HW,2013-05-20 02:05:00,
2013-05-19 18:10:00,47.4,19.6,30.15,WSW,248,0.0,6.2,33,0.00,,,0.00,WUHU216HW,2013-05-20 02:10:00,
2013-05-19 18:15:00,47.4,19.6,30.15,West,270,3.1,3.1,33,0.00,,,0.00,WUHU216HW,2013-05-20 02:15:00,
2013-05-19 18:20:00,47.6,20.4,30.15,NNW,338,1.1,3.8,34,0.00,,,0.00,WUHU216HW,2013-05-20 02:20:00,
2013-05-19 18:25:00,47.8,20.6,30.15,NNE,23,0.8,3.8,34,0.00,,,0.00,WUHU216HW,2013-05-20 02:25:00,
2013-05-19 18:30:00,47.8,20.6,30.15,NW,315,4.9,4.9,34,0.00,,,0.00,WUHU216HW,2013-05-20 02:30:00,
2013-05-19 18:35:00,48.0,20.6,30.15,West,270,1.7,4.9,34,0.00,,,0.00,WUHU216HW,2013-05-20 02:35:00,
2013-05-19 18:40:00,47.8,20.6,30.15,NNE,23,4.0,6.9,34,0.00,,,0.00,WUHU216HW,2013-05-20 02:40:00,
2013-05-19 18:45:00,47.8,20.6,30.15,North,0,7.6,7.6,34,0.00,,,0.00,WUHU216HW,2013-05-20 02:45:00,
2013-05-19 18:50:00,47.8,20.6,30.15,NNE,23,2.2,7.6,34,0.00,,,0.00,WUHU216HW,2013-05-20 02:50:00,
2013-05-19 18:55:00,47.8,20.6,30.16,NW,315,0.0,6.2,34,0.00,,,0.00,WUHU216HW,2013-05-20 02:55:00,
2013-05-19 19:00:00,47.8,20.6,30.16,WSW,248,4.6,4.6,34,0.00,,,0.00,WUHU216HW,2013-05-20 03:00:00,
2013-05-19 19:05:00,47.8,20.6,30.16,NW,315,10.9,10.9,34,0.00,,,0.00,WUHU216HW,2013-05-20 03:05:00,
2013-05-19 19:10:00,47.8,20.6,30.16,WNW,293,7.3,10.9,34,0.00,,,0.00,WUHU216HW,2013-05-20 03:10:00,
2013-05-19 19:15:00,47.8,20.6,30.16,WNW,293,6.4,10.9,34,0.00,,,0.00,WUHU216HW,2013-05-20 03:15:00,
2013-05-19 19:20:00,47.6,20.4,30.16,NW,315,7.1,8.5,34,0.00,,,0.00,WUHU216HW,2013-05-20 03:20:00,
2013-05-19 19:25:00,47.4,21.0,30.16,WSW,248,2.0,7.1,35,0.00,,,0.00,WUHU216HW,2013-05-20 03:25:00,
2013-05-19 19:30:00,47.4,21.0,30.16,WSW,248,10.7,10.7,35,0.00,,,0.00,WUHU216HW,2013-05-20 03:30:00,
2013-05-19 19:35:00,47.3,20.1,30.17,WSW,248,5.5,10.7,34,0.00,,,0.00,WUHU216HW,2013-05-20 03:35:00,
2013-05-19 19:40:00,47.3,20.1,30.17,WSW,248,6.4,10.7,34,0.00,,,0.00,WUHU216HW,2013-05-20 03:40:00,
2013-05-19 19:45:00,47.3,20.8,30.17,WSW,248,6.2,6.4,35,0.00,,,0.00,WUHU216HW,2013-05-20 03:45:00,
2013-05-19 19:50:00,47.1,20.6,30.17,WSW,248,0.8,6.2,35,0.00,,,0.00,WUHU216HW,2013-05-20 03:50:00,
2013-05-19 19:55:00,47.1,20.6,30.17,WSW,248,6.7,6.7,35,0.00,,,0.00,WUHU216HW,2013-05-20 03:55:00,
2013-05-19 20:01:00,46.9,20.5,30.17,WSW,248,0.0,6.7,35,0.00,,,0.00,WUHU216HW,2013-05-20 04:01:00,
2013-05-19 20:06:00,46.7,20.5,30.17,NNW,338,2.9,6.2,35,0.00,,,0.00,WUHU216HW,2013-05-20 04:06:00,
2013-05-19 20:11:00,46.5,20.1,30.17,WNW,293,2.0,6.2,35,0.00,,,0.00,WUHU216HW,2013-05-20 04:11:00,
2013-05-19 20:17:00,46.5,20.1,30.18,WNW,293,1.1,5.8,35,0.00,,,0.00,WUHU216HW,2013-05-20 04:17:00,
2013-05-19 20:22:00,46.4,20.0,30.17,WNW,293,3.3,9.6,35,0.00,,,0.00,WUHU216HW,2013-05-20 04:22:00,
2013-05-19 20:27:00,46.2,19.8,30.17,WNW,293,2.9,9.6,35,0.00,,,0.00,WUHU216HW,2013-05-20 04:27:00,
2013-05-19 20:32:00,46.2,19.8,30.18,North,0,1.3,6.2,35,0.00,,,0.00,WUHU216HW,2013-05-20 04:32:00,
2013-05-19 20:37:00,46.0,19.7,30.18,WNW,293,2.6,6.2,35,0.00,,,0.00,WUHU216HW,2013-05-20 04:37:00,
2013-05-19 20:42:00,46.0,19.7,30.18,WNW,293,0.6,5.1,35,0.00,,,0.00,WUHU216HW,2013-05-20 04:42:00,
2013-05-19 20:47:00,46.0,19.7,30.18,North,0,0.0,2.6,35,0.00,,,0.00,WUHU216HW,2013-05-20 04:47:00,
2013-05-19 20:52:00,45.6,20.0,30.18,WNW,293,2.0,2.0,36,0.00,,,0.00,WUHU216HW,2013-05-20 04:52:00,
2013-05-19 20:57:00,45.6,20.0,30.18,WNW,293,2.4,2.4,36,0.00,,,0.00,WUHU216HW,2013-05-20 04:57:00,
2013-05-19 21:02:00,45.6,20.0,30.17,WNW,293,4.0,4.0,36,0.00,,,0.00,WUHU216HW,2013-05-20 05:02:00,
2013-05-19 21:07:00,45.5,19.8,30.18,NW,315,0.0,4.0,36,0.00,,,0.00,WUHU216HW,2013-05-20 05:07:00,
2013-05-19 21:12:00,45.3,19.7,30.18,NNW,338,2.2,3.3,36,0.00,,,0.00,WUHU216HW,2013-05-20 05:12:00,
2013-05-19 21:17:00,45.1,19.5,30.18,North,0,0.0,2.2,36,0.00,,,0.00,WUHU216HW,2013-05-20 05:17:00,
2013-05-19 21:22:00,44.9,20.0,30.18,WNW,293,0.8,5.3,37,0.00,,,0.00,WUHU216HW,2013-05-20 05:22:00,
2013-05-19 21:27:00,44.4,19.5,30.18,North,0,0.0,5.3,37,0.00,,,0.00,WUHU216HW,2013-05-20 05:27:00,
2013-05-19 21:32:00,44.4,19.5,30.18,NW,315,1.7,1.7,37,0.00,,,0.00,WUHU216HW,2013-05-20 05:32:00,
2013-05-19 21:37:00,43.7,18.9,30.18,WNW,293,0.0,3.1,37,0.00,,,0.00,WUHU216HW,2013-05-20 05:37:00,
2013-05-19 21:42:00,43.5,19.4,30.19,North,0,0.0,3.1,38,0.00,,,0.00,WUHU216HW,2013-05-20 05:42:00,
2013-05-19 21:47:00,43.3,19.2,30.19,NW,315,0.0,0.0,38,0.00,,,0.00,WUHU216HW,2013-05-20 05:47:00,
2013-05-19 21:52:00,42.6,18.6,30.19,NNW,338,0.6,0.6,38,0.00,,,0.00,WUHU216HW,2013-05-20 05:52:00,
2013-05-19 21:57:00,42.4,18.4,30.19,WNW,293,0.4,1.3,38,0.00,,,0.00,WUHU216HW,2013-05-20 05:57:00,
2013-05-19 22:02:00,42.0,18.8,30.19,NNW,338,0.0,1.3,39,0.00,,,0.00,WUHU216HW,2013-05-20 06:02:00,
2013-05-19 22:07:00,41.7,18.4,30.19,NNW,338,0.0,0.4,39,0.00,,,0.00,WUHU216HW,2013-05-20 06:07:00,
2013-05-19 22:12:00,41.5,18.3,30.19,NW,315,0.6,0.6,39,0.00,,,0.00,WUHU216HW,2013-05-20 06:12:00,
2013-05-19 22:17:00,41.1,18.6,30.19,NW,315,0.0,0.6,40,0.00,,,0.00,WUHU216HW,2013-05-20 06:17:00,
2013-05-19 22:22:00,40.2,18.8,30.19,NW,315,0.4,0.6,42,0.00,,,0.00,WUHU216HW,2013-05-20 06:22:00,
2013-05-19 22:27:00,39.5,19.2,30.19,NW,315,0.0,0.4,44,0.00,,,0.00,WUHU216HW,2013-05-20 06:27:00,
2013-05-19 22:32:00,38.8,19.1,30.20,NW,315,0.0,0.4,45,0.00,,,0.00,WUHU216HW,2013-05-20 06:32:00,
2013-05-19 22:37:00,37.7,19.2,30.20,NW,315,0.0,0.0,47,0.00,,,0.00,WUHU216HW,2013-05-20 06:37:00,
2013-05-19 22:42:00,37.0,19.1,30.20,NW,315,0.0,0.0,48,0.00,,,0.00,WUHU216HW,2013-05-20 06:42:00,
2013-05-19 22:47:00,36.3,18.9,30.20,NW,315,0.0,0.0,49,0.00,,,0.00,WUHU216HW,2013-05-20 06:47:00,
2013-05-19 22:52:00,35.4,18.1,30.20,NW,315,0.0,0.0,49,0.00,,,0.00,WUHU216HW,2013-05-20 06:52:00,
2013-05-19 22:57:00,34.8,18.1,30.20,NW,315,0.0,0.0,50,0.00,,,0.00,WUHU216HW,2013-05-20 06:57:00,
2013-05-19 23:02:00,34.3,18.0,30.20,NW,315,0.0,0.0,51,0.00,,,0.00,WUHU216HW,2013-05-20 07:02:00,
2013-05-19 23:07:00,33.6,17.7,30.21,NW,315,0.0,0.0,52,0.00,,,0.00,WUHU216HW,2013-05-20 07:07:00,
2013-05-19 23:12:00,33.0,17.7,30.21,NW,315,0.0,0.0,53,0.00,,,0.00,WUHU216HW,2013-05-20 07:12:00,
2013-05-19 23:17:00,32.7,17.3,30.21,NW,315,0.0,0.0,53,0.00,,,0.00,WUHU216HW,2013-05-20 07:17:00,
2013-05-19 23:22:00,32.1,17.7,30.21,NW,315,0.0,0.0,55,0.00,,,0.00,WUHU216HW,2013-05-20 07:22:00,
2013-05-19 23:27:00,31.6,17.2,30.21,NW,315,0.0,0.0,55,0.00,,,0.00,WUHU216HW,2013-05-20 07:27:00,
2013-05-19 23:32:00,31.2,17.3,30.21,NW,315,0.0,0.0,56,0.00,,,0.00,WUHU216HW,2013-05-20 07:32:00,
2013-05-19 23:37:00,30.9,17.4,30.21,NW,315,0.0,0.0,57,0.00,,,0.00,WUHU216HW,2013-05-20 07:37:00,
2013-05-19 23:42:00,30.5,16.6,30.21,NW,315,0.0,0.0,56,0.00,,,0.00,WUHU216HW,2013-05-20 07:42:00,
2013-05-19 23:47:00,30.3,16.8,30.22,NW,315,0.0,0.0,57,0.00,,,0.00,WUHU216HW,2013-05-20 07:47:00,
2013-05-19 23:52:00,30.0,16.5,30.21,NW,315,0.0,0.0,57,0.00,,,0.00,WUHU216HW,2013-05-20 07:52:00,
2013-05-19 23:57:00,29.6,16.2,30.21,NW,315,0.0,0.0,57,0.00,,,0.00,WUHU216HW,2013-05-20 07:57:00,